Time;durP1;ratioP1;P1;durP2;ratioP2;P2;SDS_P1;SDS_P2;PMS_P1;PMS_P2;Temp;Humidity;BMP_temperature;BMP_pressure;BME280_temperature;BME280_humidity;BME280_pressure;Samples;Min_cycle;Max_cycle;Signal;HPM_P1;HPM_P2
2021/05/12 00:02:00;;;;;;;15.02;3.45;;;37.80;13.10;;;;;;5096069;28;20490;-67
2021/05/12 00:04:27;;;;;;;11.30;3.10;;;37.70;13.90;;;;;;5114337;28;20461;-68
2021/05/12 00:06:53;;;;;;;17.20;3.22;;;37.60;13.80;;;;;;5114385;28;20152;-69
2021/05/12 00:09:20;;;;;;;17.45;2.78;;;37.50;14.30;;;;;;5114202;28;20075;-67
2021/05/12 00:15:13;;;;;;;12.82;3.00;;;37.20;14.50;;;;;;5114541;28;20609;-67
2021/05/12 00:17:42;;;;;;;13.07;3.00;;;37.20;13.90;;;;;;5113991;28;20068;-67
2021/05/12 00:20:10;;;;;;;16.80;3.38;;;37.20;13.70;;;;;;5114059;28;20072;-67
2021/05/12 00:25:06;;;;;;;20.85;3.70;;;37.20;14.40;;;;;;5114348;28;20189;-67
2021/05/12 00:27:33;;;;;;;13.40;3.22;;;37.20;14.30;;;;;;5113558;28;20479;-67
2021/05/12 00:29:59;;;;;;;16.00;3.03;;;37.20;13.40;;;;;;5113676;28;20542;-67
2021/05/12 00:32:26;;;;;;;8.77;2.30;;;37.20;13.70;;;;;;5113779;28;20060;-68
2021/05/12 00:34:53;;;;;;;12.70;2.90;;;37.10;14.00;;;;;;5113826;28;20129;-69
2021/05/12 00:40:41;;;;;;;22.85;3.38;;;37.00;14.50;;;;;;5114113;28;20121;-67
2021/05/12 00:43:08;;;;;;;23.77;3.33;;;36.80;14.10;;;;;;5095390;28;20068;-69
2021/05/12 00:45:34;;;;;;;14.77;2.90;;;36.80;13.50;;;;;;5113809;28;20068;-67
2021/05/12 00:48:01;;;;;;;17.55;2.95;;;36.70;13.60;;;;;;5113524;28;20526;-66
2021/05/12 00:53:49;;;;;;;13.15;3.05;;;36.50;13.40;;;;;;5113989;28;20169;-67
2021/05/12 00:56:16;;;;;;;13.48;2.70;;;36.40;13.80;;;;;;5113454;28;20108;-68
2021/05/12 00:58:43;;;;;;;14.18;3.35;;;36.40;13.60;;;;;;5113740;28;20087;-67
2021/05/12 01:01:09;;;;;;;24.52;2.78;;;36.30;13.60;;;;;;5113732;28;20056;-68
2021/05/12 01:03:36;;;;;;;13.63;2.90;;;36.20;13.80;;;;;;5095460;28;20549;-66
2021/05/12 01:06:03;;;;;;;14.05;2.60;;;36.20;13.70;;;;;;5095507;28;20521;-67
2021/05/12 01:08:30;;;;;;;14.90;2.42;;;36.10;14.00;;;;;;5113720;28;20070;-67
2021/05/12 01:14:18;;;;;;;19.33;2.88;;;36.00;13.70;;;;;;5113573;28;20109;-68
2021/05/12 01:16:46;;;;;;;21.10;3.50;;;35.80;13.90;;;;;;5113045;28;20414;-67
2021/05/12 01:22:35;;;;;;;15.02;2.58;;;35.70;13.60;;;;;;5113743;28;20107;-68
2021/05/12 01:25:02;;;;;;;16.02;2.92;;;35.60;13.90;;;;;;5113690;28;20095;-68
2021/05/12 01:27:28;;;;;;;19.27;3.45;;;35.50;14.50;;;;;;5095359;28;20601;-69
2021/05/12 01:29:55;;;;;;;13.02;2.70;;;35.40;14.00;;;;;;5113390;28;20449;-68
2021/05/12 01:32:22;;;;;;;12.70;3.25;;;35.40;14.00;;;;;;5113609;28;20060;-67
2021/05/12 01:34:48;;;;;;;17.23;2.63;;;35.30;14.00;;;;;;5113361;28;20522;-67
2021/05/12 01:37:15;;;;;;;16.05;3.78;;;35.40;13.90;;;;;;5113358;28;20152;-68
2021/05/12 01:39:41;;;;;;;15.63;3.53;;;35.40;13.90;;;;;;5096980;28;20601;-67
2021/05/12 01:42:08;;;;;;;15.98;3.53;;;35.40;14.00;;;;;;5117515;28;20076;-67
2021/05/12 01:44:34;;;;;;;17.02;3.17;;;35.50;14.00;;;;;;5117305;28;20112;-67
2021/05/12 01:47:01;;;;;;;14.73;2.95;;;35.40;14.00;;;;;;5117582;28;20064;-67
2021/05/12 01:49:29;;;;;;;21.10;3.15;;;35.20;14.00;;;;;;5117417;28;20406;-68
2021/05/12 01:51:56;;;;;;;16.65;3.55;;;35.00;14.40;;;;;;5117268;28;20071;-68
2021/05/12 01:54:22;;;;;;;16.85;4.18;;;35.10;14.60;;;;;;5117337;28;20060;-67
2021/05/12 01:56:50;;;;;;;16.60;3.58;;;35.10;14.40;;;;;;5117057;28;20115;-68
2021/05/12 01:59:17;;;;;;;17.45;3.65;;;35.10;14.60;;;;;;5099143;28;20102;-67
2021/05/12 02:01:43;;;;;;;13.30;2.78;;;34.90;14.70;;;;;;5099346;28;20483;-67
2021/05/12 02:04:10;;;;;;;20.80;3.40;;;34.70;15.00;;;;;;5116998;28;20130;-68
2021/05/12 02:06:37;;;;;;;15.35;3.22;;;34.50;15.20;;;;;;5116913;28;20072;-68
2021/05/12 02:09:07;;;;;;;18.35;2.88;;;34.20;14.80;;;;;;5117236;28;20103;-68
2021/05/12 02:11:35;;;;;;;18.55;3.25;;;34.00;15.10;;;;;;5098697;28;20159;-66
2021/05/12 02:14:02;;;;;;;21.25;3.00;;;33.90;15.40;;;;;;5116637;28;20081;-67
2021/05/12 02:16:29;;;;;;;17.85;2.78;;;33.80;15.40;;;;;;5098393;28;20072;-67
2021/05/12 02:18:56;;;;;;;12.45;2.92;;;33.80;15.30;;;;;;5116716;28;20068;-68
2021/05/12 02:21:22;;;;;;;23.63;3.28;;;33.60;15.60;;;;;;5116840;28;20068;-68
2021/05/12 02:23:49;;;;;;;22.02;3.17;;;33.50;15.60;;;;;;5116734;28;20442;-67
2021/05/12 02:26:15;;;;;;;21.58;3.05;;;33.40;15.60;;;;;;5116484;28;20559;-68
2021/05/12 02:28:41;;;;;;;16.00;3.70;;;33.30;15.80;;;;;;5116631;28;20521;-67
2021/05/12 02:31:08;;;;;;;18.10;2.60;;;33.20;15.90;;;;;;5116384;28;20092;-68
2021/05/12 02:33:34;;;;;;;19.35;3.45;;;33.10;15.90;;;;;;5116461;28;20113;-68
2021/05/12 02:39:27;;;;;;;19.00;3.65;;;32.90;16.30;;;;;;5116581;28;20094;-66
2021/05/12 02:41:54;;;;;;;30.90;4.03;;;32.80;16.40;;;;;;5116273;28;20113;-67
2021/05/12 02:44:20;;;;;;;24.15;3.97;;;32.70;16.70;;;;;;5097884;28;20137;-67
2021/05/12 02:46:47;;;;;;;23.02;4.20;;;32.60;16.70;;;;;;5116157;28;20509;-68
2021/05/12 02:49:14;;;;;;;32.67;5.45;;;32.60;16.90;;;;;;5116118;28;20129;-68
2021/05/12 02:51:40;;;;;;;39.90;4.68;;;32.50;17.00;;;;;;5115302;28;20458;-68
2021/05/12 02:54:07;;;;;;;45.92;5.25;;;32.40;17.40;;;;;;5116168;28;20106;-67
2021/05/12 02:56:34;;;;;;;39.72;5.53;;;32.40;17.70;;;;;;5115877;28;20112;-69
2021/05/12 02:59:01;;;;;;;53.47;5.53;;;32.30;17.70;;;;;;5116031;28;20099;-69
2021/05/12 03:01:28;;;;;;;48.75;5.70;;;32.20;17.80;;;;;;5115998;28;20072;-68
2021/05/12 03:03:54;;;;;;;42.72;5.63;;;32.20;17.90;;;;;;5097447;28;20096;-68
2021/05/12 03:06:21;;;;;;;42.42;5.10;;;32.10;18.00;;;;;;5115777;28;20068;-69
2021/05/12 03:08:47;;;;;;;41.72;5.57;;;32.00;17.80;;;;;;5097501;28;20072;-68
2021/05/12 03:11:13;;;;;;;44.35;6.53;;;32.00;18.00;;;;;;5115629;28;20072;-69
2021/05/12 03:13:40;;;;;;;48.30;7.00;;;31.90;18.00;;;;;;5115645;28;20072;-68
2021/05/12 03:16:06;;;;;;;45.55;7.15;;;31.90;18.10;;;;;;5115627;28;20201;-68
2021/05/12 03:18:33;;;;;;;45.75;6.45;;;31.80;18.30;;;;;;5115705;28;20091;-69
2021/05/12 03:24:21;;;;;;;94.00;8.80;;;31.70;18.90;;;;;;5115316;28;20461;-68
2021/05/12 03:26:48;;;;;;;77.10;8.00;;;31.60;18.80;;;;;;5115448;28;20112;-69
2021/05/12 03:32:37;;;;;;;36.97;5.18;;;31.50;19.30;;;;;;5115504;28;20158;-69
2021/05/12 03:35:05;;;;;;;34.72;5.05;;;31.40;19.80;;;;;;5115051;28;20068;-68
2021/05/12 03:37:31;;;;;;;25.02;4.63;;;31.40;20.00;;;;;;5096891;28;20068;-67
2021/05/12 03:39:58;;;;;;;22.70;3.90;;;31.40;20.40;;;;;;5115161;28;20061;-67
2021/05/12 03:42:25;;;;;;;20.65;4.00;;;31.30;20.60;;;;;;5115267;28;20071;-68
2021/05/12 03:44:51;;;;;;;42.88;5.60;;;31.30;20.70;;;;;;5114754;28;20456;-68
2021/05/12 03:47:18;;;;;;;30.05;4.55;;;31.20;20.80;;;;;;5114972;28;20064;-68
2021/05/12 03:49:46;;;;;;;24.08;4.60;;;31.20;21.10;;;;;;5096786;28;20147;-68
2021/05/12 03:52:15;;;;;;;35.97;5.30;;;31.10;21.00;;;;;;5114697;28;20075;-67
2021/05/12 03:54:49;;;;;;;30.70;4.72;;;31.10;21.20;;;;;;5114857;28;20573;-68
2021/05/12 03:57:18;;;;;;;31.60;4.97;;;31.00;21.30;;;;;;5092913;28;20151;-67
2021/05/12 03:59:45;;;;;;;23.88;4.85;;;30.90;21.30;;;;;;5094404;28;20464;-68
2021/05/12 04:02:18;;;;;;;31.73;5.13;;;30.90;21.50;;;;;;5094061;28;20073;-67
2021/05/12 04:04:44;;;;;;;32.65;5.25;;;30.80;21.50;;;;;;5093597;28;20088;-68
2021/05/12 04:07:17;;;;;;;34.85;4.85;;;30.80;21.60;;;;;;5094247;28;20070;-67
2021/05/12 04:09:45;;;;;;;43.58;5.47;;;30.70;21.80;;;;;;5094327;28;20155;-67
2021/05/12 04:12:12;;;;;;;40.30;5.93;;;30.60;21.90;;;;;;5092987;28;20077;-67
2021/05/12 04:14:41;;;;;;;44.38;7.78;;;30.60;22.10;;;;;;5092882;28;20088;-67
2021/05/12 04:17:09;;;;;;;47.78;7.40;;;30.50;22.00;;;;;;5092746;28;20080;-68
2021/05/12 04:19:35;;;;;;;55.40;7.30;;;30.50;22.30;;;;;;5094474;28;20064;-67
2021/05/12 04:22:03;;;;;;;50.35;7.70;;;30.40;22.20;;;;;;5094336;28;20064;-67
2021/05/12 04:24:30;;;;;;;46.38;7.13;;;30.30;22.30;;;;;;5093969;28;20434;-68
2021/05/12 04:26:56;;;;;;;47.80;6.60;;;30.30;22.30;;;;;;5092919;28;20075;-67
2021/05/12 04:29:23;;;;;;;45.45;6.75;;;30.20;22.40;;;;;;5093904;28;20511;-67
2021/05/12 04:31:50;;;;;;;43.88;6.60;;;30.20;22.60;;;;;;5093889;28;20152;-68
2021/05/12 04:34:16;;;;;;;31.55;5.90;;;30.10;22.70;;;;;;5093811;28;20099;-68
2021/05/12 04:36:43;;;;;;;36.70;5.30;;;30.00;22.90;;;;;;5093896;28;20148;-68
2021/05/12 04:39:09;;;;;;;40.10;5.68;;;29.90;23.00;;;;;;5094110;28;20103;-68
2021/05/12 04:41:36;;;;;;;36.80;5.90;;;29.80;23.00;;;;;;5093850;28;20513;-68
2021/05/12 04:44:04;;;;;;;34.40;6.00;;;29.70;23.20;;;;;;5093831;28;20142;-68
2021/05/12 04:46:31;;;;;;;38.03;6.18;;;29.80;23.40;;;;;;5093931;28;20125;-67
2021/05/12 04:48:57;;;;;;;48.72;7.40;;;29.70;23.50;;;;;;5093866;28;20069;-68
2021/05/12 04:51:24;;;;;;;57.22;6.60;;;29.60;23.60;;;;;;5093730;28;20541;-68
2021/05/12 04:53:50;;;;;;;42.78;5.70;;;29.50;23.70;;;;;;5092605;28;20084;-68
2021/05/12 04:56:17;;;;;;;38.83;5.22;;;29.50;23.80;;;;;;5100411;28;20120;-69
2021/05/12 04:58:43;;;;;;;31.50;5.28;;;29.40;23.90;;;;;;5118780;28;20107;-69
2021/05/12 05:01:10;;;;;;;39.97;5.95;;;29.40;23.90;;;;;;5114396;28;20064;-68
2021/05/12 05:03:41;;;;;;;42.25;5.85;;;29.40;23.90;;;;;;5113810;28;20100;-69
2021/05/12 05:09:30;;;;;;;36.92;6.60;;;29.30;24.10;;;;;;5114193;28;20125;-68
2021/05/12 05:11:56;;;;;;;35.13;7.13;;;29.20;24.20;;;;;;5113783;28;20072;-68
2021/05/12 05:14:23;;;;;;;41.00;10.30;;;29.10;24.40;;;;;;5114950;28;20421;-70
2021/05/12 05:16:49;;;;;;;50.08;14.02;;;29.10;24.50;;;;;;5118299;28;20100;-69
2021/05/12 05:19:16;;;;;;;49.67;14.95;;;29.00;24.50;;;;;;5117917;28;20064;-67
2021/05/12 05:21:43;;;;;;;53.63;14.90;;;29.00;24.60;;;;;;5118019;28;20064;-67
2021/05/12 05:24:10;;;;;;;57.55;15.93;;;29.00;24.60;;;;;;5117629;28;20088;-68
2021/05/12 05:26:37;;;;;;;56.60;16.98;;;28.90;24.60;;;;;;5117814;28;20067;-66
2021/05/12 05:29:04;;;;;;;51.85;16.08;;;28.90;25.00;;;;;;5117916;28;20536;-67
2021/05/12 05:31:30;;;;;;;57.28;15.48;;;28.90;25.50;;;;;;5117692;28;20068;-67
2021/05/12 05:33:57;;;;;;;58.20;15.07;;;28.80;25.50;;;;;;5099423;28;20076;-67
2021/05/12 05:36:23;;;;;;;54.92;14.43;;;28.80;25.70;;;;;;5117658;28;20091;-68
2021/05/12 05:38:50;;;;;;;52.83;16.40;;;28.70;25.80;;;;;;5117720;28;20079;-67
2021/05/12 05:41:17;;;;;;;61.33;17.20;;;28.60;25.20;;;;;;5099056;28;20068;-67
2021/05/12 05:43:44;;;;;;;68.35;16.25;;;28.50;25.20;;;;;;5098990;28;20110;-68
2021/05/12 05:46:10;;;;;;;65.43;15.73;;;28.50;25.40;;;;;;5117227;28;20498;-68
2021/05/12 05:48:37;;;;;;;52.90;13.43;;;28.40;25.50;;;;;;5117459;28;20509;-68
2021/05/12 05:51:03;;;;;;;66.05;14.15;;;28.30;25.50;;;;;;5117413;28;20582;-67
2021/05/12 05:53:30;;;;;;;64.15;13.88;;;28.30;25.60;;;;;;5117670;28;20091;-67
2021/05/12 05:55:56;;;;;;;49.45;11.65;;;28.30;25.90;;;;;;5117031;28;20068;-68
2021/05/12 05:58:23;;;;;;;49.03;11.88;;;28.30;25.50;;;;;;5098950;28;20080;-67
2021/05/12 06:00:49;;;;;;;60.65;11.65;;;28.20;26.10;;;;;;5116818;28;20068;-66
2021/05/12 06:03:16;;;;;;;71.30;12.27;;;28.20;25.90;;;;;;5116344;28;20080;-68
2021/05/12 06:05:47;;;;;;;43.10;10.50;;;28.20;26.50;;;;;;5116464;28;20080;-68
2021/05/12 06:08:14;;;;;;;94.70;12.27;;;28.10;26.10;;;;;;5116534;28;20068;-68
2021/05/12 06:10:40;;;;;;;51.35;11.20;;;28.00;25.80;;;;;;5116423;28;20068;-68
2021/05/12 06:13:07;;;;;;;63.08;12.23;;;28.00;25.70;;;;;;5116513;28;20529;-67
2021/05/12 06:15:33;;;;;;;53.03;11.23;;;28.00;25.90;;;;;;5116592;28;20101;-66
2021/05/12 06:18:00;;;;;;;49.45;10.50;;;27.90;25.60;;;;;;5116362;28;20068;-68
2021/05/12 06:20:26;;;;;;;34.45;9.48;;;27.90;25.90;;;;;;5116416;28;20068;-68
2021/05/12 06:23:01;;;;;;;55.70;11.27;;;27.90;26.50;;;;;;5116388;28;20064;-67
2021/05/12 06:25:27;;;;;;;53.50;11.27;;;27.90;26.60;;;;;;5115791;28;20099;-66
2021/05/12 06:27:54;;;;;;;55.78;11.13;;;27.80;26.80;;;;;;5115848;28;20521;-67
2021/05/12 06:30:21;;;;;;;46.60;10.20;;;27.80;26.80;;;;;;5116169;28;20121;-67
2021/05/12 06:32:50;;;;;;;51.25;10.40;;;27.70;26.20;;;;;;5116095;28;20148;-67
2021/05/12 06:35:17;;;;;;;77.47;11.82;;;27.70;25.90;;;;;;5097743;28;20171;-67
2021/05/12 06:37:45;;;;;;;65.75;12.85;;;27.70;26.50;;;;;;5116220;28;20079;-69
2021/05/12 06:40:13;;;;;;;56.00;11.10;;;27.60;26.20;;;;;;5116187;28;20061;-69
2021/05/12 06:42:40;;;;;;;47.67;10.48;;;27.60;26.70;;;;;;5116105;28;20068;-69
2021/05/12 06:45:07;;;;;;;44.33;10.45;;;27.50;26.90;;;;;;5115973;28;20103;-70
2021/05/12 06:47:34;;;;;;;45.47;11.65;;;27.50;26.60;;;;;;5098050;28;20080;-69
2021/05/12 06:50:00;;;;;;;40.17;11.60;;;27.50;26.10;;;;;;5115862;28;20116;-68
2021/05/12 06:52:27;;;;;;;57.47;11.38;;;27.40;26.00;;;;;;5116132;28;20064;-69
2021/05/12 06:54:53;;;;;;;47.80;10.88;;;27.40;26.20;;;;;;5115954;28;20068;-67
2021/05/12 06:57:19;;;;;;;50.65;11.90;;;27.30;26.40;;;;;;5115793;28;20119;-70
2021/05/12 06:59:46;;;;;;;47.95;11.15;;;27.30;26.80;;;;;;5115834;28;20604;-70
2021/05/12 07:02:12;;;;;;;42.03;12.68;;;27.30;26.80;;;;;;5115777;28;20148;-71
2021/05/12 07:04:40;;;;;;;44.47;12.27;;;27.20;26.80;;;;;;5115862;28;20103;-70
2021/05/12 07:07:06;;;;;;;47.42;13.23;;;27.20;26.90;;;;;;5115856;28;20072;-70
2021/05/12 07:09:33;;;;;;;42.95;12.88;;;27.20;27.20;;;;;;5115898;28;20147;-70
2021/05/12 07:11:59;;;;;;;40.75;13.15;;;27.10;27.20;;;;;;5115722;28;20064;-69
2021/05/12 07:14:26;;;;;;;38.78;11.60;;;27.10;27.30;;;;;;5097184;28;20097;-69
2021/05/12 07:16:53;;;;;;;44.65;12.10;;;27.20;27.00;;;;;;5115664;28;20067;-69
2021/05/12 07:19:20;;;;;;;40.83;10.73;;;27.10;26.90;;;;;;5115456;28;20514;-69
2021/05/12 07:21:47;;;;;;;47.95;11.70;;;27.10;26.60;;;;;;5115405;28;20109;-69
2021/05/12 07:27:36;;;;;;;39.58;10.77;;;27.10;26.60;;;;;;5115639;28;20086;-69
2021/05/12 07:30:04;;;;;;;41.80;10.98;;;27.00;26.90;;;;;;5115369;28;20436;-69
2021/05/12 07:32:30;;;;;;;37.65;10.00;;;27.00;26.70;;;;;;5115340;28;20072;-70
2021/05/12 07:34:57;;;;;;;39.80;10.40;;;26.90;26.90;;;;;;5115477;28;20067;-70
2021/05/12 07:37:24;;;;;;;39.00;10.63;;;26.90;27.40;;;;;;5117472;28;20091;-69
2021/05/12 07:39:52;;;;;;;42.40;10.18;;;26.80;27.20;;;;;;5097293;28;20474;-69
2021/05/12 07:42:20;;;;;;;42.17;10.57;;;26.80;27.90;;;;;;5097193;28;20100;-69
2021/05/12 07:44:48;;;;;;;49.75;11.10;;;26.70;27.40;;;;;;5097669;28;20124;-68
2021/05/12 07:47:15;;;;;;;40.28;11.05;;;26.70;27.20;;;;;;5120996;28;20107;-69
2021/05/12 07:49:42;;;;;;;43.20;10.07;;;26.60;27.70;;;;;;5128239;28;20076;-70
2021/05/12 07:52:13;;;;;;;49.28;10.75;;;26.60;27.40;;;;;;5117632;28;20147;-69
2021/05/12 07:54:42;;;;;;;43.03;10.70;;;26.50;27.60;;;;;;5115305;28;20094;-69
2021/05/12 07:57:09;;;;;;;43.95;10.45;;;26.50;26.70;;;;;;5096465;28;20112;-69
2021/05/12 07:59:36;;;;;;;48.20;11.82;;;26.50;26.70;;;;;;5114713;28;20064;-69
2021/05/12 08:02:04;;;;;;;45.70;10.18;;;26.40;27.20;;;;;;5096249;28;20125;-70
2021/05/12 08:04:32;;;;;;;37.33;10.50;;;26.40;27.70;;;;;;5114574;28;20593;-69
2021/05/12 08:06:59;;;;;;;43.92;12.20;;;26.40;27.20;;;;;;5114532;28;20072;-69
2021/05/12 08:09:27;;;;;;;48.33;13.68;;;26.40;27.90;;;;;;5114486;28;20075;-70
2021/05/12 08:11:54;;;;;;;46.70;11.07;;;26.30;27.30;;;;;;5114453;28;20095;-70
2021/05/12 08:14:21;;;;;;;57.05;13.05;;;26.30;28.30;;;;;;5114382;28;20148;-71
2021/05/12 08:16:47;;;;;;;44.40;11.98;;;26.20;28.20;;;;;;5114406;28;20095;-70
2021/05/12 08:22:35;;;;;;;44.42;10.50;;;25.80;27.80;;;;;;5114569;28;20428;-69
2021/05/12 08:28:24;;;;;;;35.60;8.10;;;25.80;28.50;;;;;;5114376;28;20188;-71
2021/05/12 08:34:13;;;;;;;24.20;5.10;;;25.60;30.00;;;;;;5114380;28;20099;-69
2021/05/12 08:36:39;;;;;;;25.90;5.05;;;25.50;30.80;;;;;;5114059;28;20062;-69
2021/05/12 08:39:08;;;;;;;29.38;5.20;;;25.50;31.40;;;;;;5114051;28;20074;-69
2021/05/12 08:41:35;;;;;;;21.33;5.60;;;25.30;32.40;;;;;;5114128;28;20406;-70
2021/05/12 08:44:06;;;;;;;41.60;5.82;;;25.20;33.20;;;;;;5113981;28;20143;-69
2021/05/12 08:46:34;;;;;;;23.35;5.10;;;25.10;34.20;;;;;;5113966;28;20117;-70
2021/05/12 08:49:01;;;;;;;23.70;5.38;;;25.00;34.70;;;;;;5095154;28;20076;-69
2021/05/12 08:51:28;;;;;;;22.20;5.15;;;24.90;35.20;;;;;;5095663;28;20553;-69
2021/05/12 08:57:16;;;;;;;24.90;5.65;;;24.70;36.60;;;;;;5110836;28;20121;-70
2021/05/12 08:59:42;;;;;;;15.70;4.68;;;24.50;37.50;;;;;;5113761;28;20148;-70
2021/05/12 09:02:10;;;;;;;29.35;5.20;;;24.50;38.40;;;;;;5113869;28;20080;-69
2021/05/12 09:04:37;;;;;;;27.60;5.60;;;24.40;39.30;;;;;;5113615;28;20636;-69
2021/05/12 09:07:04;;;;;;;34.47;5.95;;;24.40;39.90;;;;;;5113664;28;20148;-69
2021/05/12 09:09:31;;;;;;;25.48;5.78;;;24.30;40.90;;;;;;5113625;28;20072;-70
2021/05/12 09:11:57;;;;;;;22.63;5.53;;;24.20;42.20;;;;;;5095531;28;20475;-70
2021/05/12 09:17:48;;;;;;;18.90;5.45;;;24.00;43.80;;;;;;5113749;28;20163;-70
2021/05/12 09:23:41;;;;;;;22.30;5.20;;;24.00;44.90;;;;;;5113868;28;20187;-71
2021/05/12 09:26:14;;;;;;;23.98;6.68;;;24.00;45.60;;;;;;5113641;28;20065;-70
2021/05/12 09:28:41;;;;;;;28.33;5.97;;;23.80;46.10;;;;;;5113535;28;20071;-70
2021/05/12 09:31:14;;;;;;;23.95;6.53;;;23.70;46.90;;;;;;5113634;28;20064;-70
2021/05/12 09:33:43;;;;;;;26.35;6.45;;;23.70;47.30;;;;;;5113639;28;20114;-70
2021/05/12 09:36:24;;;;;;;29.80;7.25;;;23.60;47.70;;;;;;5113756;28;20539;-69
2021/05/12 09:42:20;;;;;;;27.48;6.80;;;23.50;48.50;;;;;;5113785;28;20157;-70
2021/05/12 09:44:47;;;;;;;32.05;7.00;;;23.40;48.90;;;;;;5113310;28;20156;-69
2021/05/12 09:47:29;;;;;;;35.20;7.25;;;23.40;49.20;;;;;;5113557;28;20064;-70
2021/05/12 09:49:56;;;;;;;29.85;6.60;;;23.30;49.70;;;;;;5113544;28;20561;-68
2021/05/12 09:55:48;;;;;;;33.80;8.13;;;23.30;49.70;;;;;;5113652;28;20117;-69
2021/05/12 10:01:43;;;;;;;34.38;10.90;;;23.20;49.90;;;;;;5114839;28;20090;-68
2021/05/12 10:04:35;;;;;;;44.35;11.48;;;23.30;50.60;;;;;;5116715;28;20095;-70
2021/05/12 10:07:20;;;;;;;47.55;13.27;;;23.30;49.80;;;;;;5117037;28;20075;-68
2021/05/12 10:09:55;;;;;;;43.65;13.02;;;23.20;49.70;;;;;;5098748;28;20168;-69
2021/05/12 10:12:26;;;;;;;46.47;13.35;;;23.20;49.90;;;;;;5098730;28;20067;-68
2021/05/12 10:14:56;;;;;;;48.50;13.77;;;23.00;50.00;;;;;;5117056;28;20099;-68
2021/05/12 10:17:23;;;;;;;40.45;12.38;;;23.00;50.20;;;;;;5116753;28;20112;-69
2021/05/12 10:19:50;;;;;;;39.13;11.80;;;23.00;50.20;;;;;;5116720;28;20064;-68
2021/05/12 10:22:18;;;;;;;39.30;11.55;;;23.00;50.40;;;;;;5116661;28;20065;-68
2021/05/12 10:24:48;;;;;;;33.28;11.73;;;23.00;50.40;;;;;;5116581;28;20092;-68
2021/05/12 10:27:29;;;;;;;31.58;10.15;;;23.00;50.50;;;;;;5116571;28;20068;-67
2021/05/12 10:30:03;;;;;;;33.03;9.25;;;23.00;51.10;;;;;;5116533;28;20068;-70
2021/05/12 10:32:34;;;;;;;32.83;9.38;;;22.90;51.60;;;;;;5116758;28;20582;-69
2021/05/12 10:35:03;;;;;;;29.42;8.00;;;22.80;52.10;;;;;;5116721;28;20056;-68
2021/05/12 10:37:32;;;;;;;38.67;8.13;;;22.90;53.00;;;;;;5116651;28;20068;-68
2021/05/12 10:40:23;;;;;;;33.92;7.90;;;22.90;53.20;;;;;;5116727;28;20061;-69
2021/05/12 10:43:07;;;;;;;29.90;7.85;;;23.00;53.50;;;;;;5125191;28;20113;-68
2021/05/12 10:45:36;;;;;;;28.30;7.15;;;22.90;54.00;;;;;;5122466;28;20212;-69
2021/05/12 10:48:04;;;;;;;28.05;7.72;;;22.90;54.30;;;;;;5116278;28;20082;-69
2021/05/12 10:50:50;;;;;;;23.58;6.95;;;22.90;55.00;;;;;;5116077;28;20100;-68
2021/05/12 10:53:22;;;;;;;30.20;8.23;;;22.90;55.30;;;;;;5115831;28;20418;-70
2021/05/12 10:56:08;;;;;;;38.38;12.20;;;22.90;55.30;;;;;;5097664;28;20083;-69
2021/05/12 10:58:57;;;;;;;41.25;15.00;;;22.90;55.60;;;;;;5097665;28;20084;-70
2021/05/12 11:01:25;;;;;;;43.35;15.05;;;22.90;55.80;;;;;;5115877;28;20087;-68
2021/05/12 11:03:52;;;;;;;30.92;11.25;;;22.80;55.80;;;;;;5115576;28;20091;-70
2021/05/12 11:06:44;;;;;;;38.45;10.02;;;22.80;55.90;;;;;;5115799;28;20071;-69
2021/05/12 11:09:42;;;;;;;30.90;9.18;;;22.80;56.00;;;;;;5115500;28;20539;-70
2021/05/12 11:12:10;;;;;;;33.38;9.40;;;22.70;56.50;;;;;;5109116;28;20218;-68
2021/05/12 11:14:38;;;;;;;30.23;9.70;;;22.70;56.70;;;;;;5097591;28;20139;-69
2021/05/12 11:17:19;;;;;;;33.42;11.30;;;22.70;57.10;;;;;;5115849;28;20071;-70
2021/05/12 11:22:31;;;;;;;29.55;9.43;;;22.80;58.20;;;;;;5115549;28;20553;-70
2021/05/12 11:25:05;;;;;;;24.85;8.60;;;22.80;58.80;;;;;;5115486;28;20124;-68
2021/05/12 11:32:36;;;;;;;22.48;7.32;;;22.70;61.20;;;;;;5115447;28;20124;-71
2021/05/12 11:35:05;;;;;;;34.08;7.65;;;22.60;63.00;;;;;;5115275;28;20075;-70
2021/05/12 11:37:34;;;;;;;22.85;6.90;;;22.60;64.60;;;;;;5115157;28;20072;-70
2021/05/12 11:40:02;;;;;;;29.38;6.95;;;22.60;65.00;;;;;;5114865;28;20095;-69
2021/05/12 11:45:50;;;;;;;21.35;6.90;;;22.60;66.60;;;;;;5115322;28;20115;-69
2021/05/12 11:51:43;;;;;;;29.13;7.53;;;22.50;68.40;;;;;;5115245;28;20083;-70
2021/05/12 11:54:16;;;;;;;27.73;6.85;;;22.50;68.90;;;;;;5115020;28;20060;-69
2021/05/12 11:56:45;;;;;;;27.27;7.00;;;22.40;70.10;;;;;;5096375;28;20111;-69
2021/05/12 11:59:23;;;;;;;27.52;6.95;;;22.50;71.80;;;;;;5114803;28;20577;-69
2021/05/12 12:01:57;;;;;;;32.42;7.35;;;22.40;72.70;;;;;;5115083;28;20072;-69
2021/05/12 12:04:29;;;;;;;27.42;6.30;;;22.40;74.10;;;;;;5115410;28;20110;-70
2021/05/12 12:06:57;;;;;;;26.25;6.80;;;22.40;75.20;;;;;;5114688;28;20535;-71
2021/05/12 12:12:56;;;;;;;34.45;9.10;;;22.30;77.10;;;;;;5114831;28;20128;-70
2021/05/12 12:15:23;;;;;;;29.88;9.20;;;22.40;79.20;;;;;;5096444;28;20068;-69
2021/05/12 12:17:51;;;;;;;35.22;8.80;;;22.40;80.60;;;;;;5114658;28;20064;-71
2021/05/12 12:20:18;;;;;;;40.47;9.52;;;22.30;82.10;;;;;;5114368;28;20562;-70
2021/05/12 12:22:48;;;;;;;35.65;10.52;;;22.30;83.70;;;;;;5114396;28;20076;-70
2021/05/12 12:25:17;;;;;;;42.88;11.35;;;22.40;85.00;;;;;;5113369;28;20540;-69
2021/05/12 12:27:44;;;;;;;48.90;14.50;;;22.30;85.90;;;;;;5114298;28;20209;-69
2021/05/12 12:30:14;;;;;;;50.30;17.33;;;22.30;87.60;;;;;;5114206;28;20076;-69
2021/05/12 12:32:41;;;;;;;64.18;20.52;;;22.20;88.90;;;;;;5114224;28;20079;-70
2021/05/12 12:35:08;;;;;;;72.82;23.17;;;22.20;89.50;;;;;;5114253;28;20580;-70
2021/05/12 12:37:37;;;;;;;70.47;23.42;;;22.20;90.00;;;;;;5114312;28;20060;-68
2021/05/12 12:40:14;;;;;;;71.95;25.63;;;22.20;90.40;;;;;;5114082;28;20072;-69
2021/05/12 12:42:50;;;;;;;70.65;24.95;;;22.20;90.90;;;;;;5114079;28;20064;-70
2021/05/12 12:45:34;;;;;;;77.50;23.98;;;22.30;90.80;;;;;;5114111;28;20599;-68
2021/05/12 12:48:02;;;;;;;91.47;26.58;;;22.10;91.00;;;;;;5114127;28;20076;-70
2021/05/12 12:50:34;;;;;;;89.97;25.98;;;22.10;91.40;;;;;;5095803;28;20072;-70
2021/05/12 12:56:22;;;;;;;87.20;27.13;;;22.00;91.60;;;;;;5113839;28;20111;-69
2021/05/12 12:59:11;;;;;;;89.43;23.73;;;22.10;92.00;;;;;;5113988;28;20079;-68
2021/05/12 13:01:39;;;;;;;88.78;22.45;;;22.10;91.80;;;;;;5113891;28;20068;-70
2021/05/12 13:04:19;;;;;;;77.57;19.70;;;22.20;91.40;;;;;;5113596;28;20561;-69
2021/05/12 13:07:05;;;;;;;77.35;19.10;;;22.10;90.40;;;;;;5095597;28;20159;-70
2021/05/12 13:09:31;;;;;;;71.03;19.67;;;21.90;90.10;;;;;;5113734;28;20079;-71
2021/05/12 13:11:59;;;;;;;51.97;14.80;;;21.90;89.80;;;;;;5113779;28;20072;-71
2021/05/12 13:14:27;;;;;;;39.72;11.70;;;21.90;86.70;;;;;;5114026;28;20071;-68
2021/05/12 13:17:04;;;;;;;42.42;9.93;;;21.90;84.20;;;;;;5113656;28;20582;-69
2021/05/12 13:19:43;;;;;;;46.90;11.18;;;21.80;83.60;;;;;;5113681;28;20087;-69
2021/05/12 13:22:11;;;;;;;47.75;11.57;;;21.80;84.60;;;;;;5095320;28;20581;-70
2021/05/12 13:24:37;;;;;;;43.80;10.82;;;21.80;84.50;;;;;;5113714;28;20529;-70
2021/05/12 13:27:09;;;;;;;41.42;10.13;;;21.70;85.80;;;;;;5095741;28;20072;-70
2021/05/12 13:29:37;;;;;;;54.00;11.50;;;21.70;87.40;;;;;;5095872;28;20159;-70
2021/05/12 13:32:04;;;;;;;58.00;11.70;;;21.70;88.10;;;;;;5095880;28;20072;-70
2021/05/12 13:37:53;;;;;;;47.60;9.40;;;21.80;87.30;;;;;;5130487;28;20491;-68
2021/05/12 13:40:20;;;;;;;38.75;7.65;;;21.80;83.20;;;;;;5106033;28;20445;-70
2021/05/12 13:42:46;;;;;;;44.85;7.72;;;21.80;81.50;;;;;;5118698;28;20096;-70
2021/05/12 13:45:13;;;;;;;38.10;7.68;;;21.80;80.90;;;;;;5118213;28;20099;-70
2021/05/12 13:47:41;;;;;;;39.83;7.25;;;21.90;81.30;;;;;;5117765;28;20112;-70
2021/05/12 13:50:10;;;;;;;24.23;5.95;;;21.90;82.20;;;;;;5099116;28;20080;-69
2021/05/12 13:56:11;;;;;;;30.42;5.97;;;22.00;85.90;;;;;;5117319;28;20496;-70
2021/05/12 14:02:18;;;;;;;32.13;5.68;;;22.10;87.70;;;;;;5117111;28;20549;-70
2021/05/12 14:04:46;;;;;;;32.85;5.72;;;22.20;88.60;;;;;;5098710;28;20160;-70
2021/05/12 14:07:13;;;;;;;29.42;6.65;;;22.20;88.50;;;;;;5117154;28;20428;-70
2021/05/12 14:09:44;;;;;;;31.80;7.07;;;22.40;87.50;;;;;;5098725;28;20074;-69
2021/05/12 14:12:12;;;;;;;29.55;6.60;;;22.40;87.80;;;;;;5117060;28;20124;-69
2021/05/12 14:17:16;;;;;;;34.53;7.28;;;22.50;87.10;;;;;;5116930;28;20428;-69
2021/05/12 14:19:43;;;;;;;36.95;7.40;;;22.60;87.60;;;;;;5099265;28;20064;-70
2021/05/12 14:22:10;;;;;;;26.60;6.97;;;22.70;87.70;;;;;;5116679;28;20078;-71